createdAt,value
2018-11-02T00:00:04.748Z,7.72
2018-11-02T00:00:18.565Z,7.72
2018-11-02T00:00:32.358Z,7.72
2018-11-02T00:00:44.628Z,7.26
2018-11-02T00:00:56.929Z,7.26
2018-11-02T00:01:10.143Z,7.26
2018-11-02T00:01:22.364Z,7.26
2018-11-02T00:01:34.643Z,7.26
2018-11-02T00:01:46.899Z,7.26
2018-11-02T00:01:59.150Z,7.26
2018-11-02T00:02:12.344Z,7.26
2018-11-02T00:02:24.576Z,7.26
2018-11-02T00:02:36.797Z,7.26
2018-11-02T00:02:49.029Z,7.26
2018-11-02T00:03:01.244Z,7.26
2018-11-02T00:03:13.480Z,7.26
2018-11-02T00:03:26.566Z,7.26
2018-11-02T00:03:38.833Z,7.26
2018-11-02T00:03:51.081Z,7.26
2018-11-02T00:04:03.373Z,7.26
2018-11-02T00:04:15.609Z,7.26
2018-11-02T00:04:28.669Z,7.26
2018-11-02T00:04:41.391Z,7.26
2018-11-02T00:04:53.605Z,7.26
2018-11-02T00:05:06.310Z,7.26
2018-11-02T00:05:18.712Z,7.26
2018-11-02T00:05:31.679Z,7.26
2018-11-02T00:05:44.017Z,7.26
2018-11-02T00:05:56.230Z,7.26
2018-11-02T00:06:09.222Z,7.26
2018-11-02T00:06:23.257Z,7.26
2018-11-02T00:06:37.485Z,7.26
2018-11-02T00:06:49.733Z,7.26
2018-11-02T00:07:01.991Z,7.26
2018-11-02T00:07:14.256Z,7.26
2018-11-02T00:07:26.707Z,7.26
2018-11-02T00:07:38.910Z,7.26
2018-11-02T00:07:52.127Z,7.26
2018-11-02T00:08:04.320Z,7.26
2018-11-02T00:08:16.554Z,7.26
2018-11-02T00:08:28.793Z,7.26
2018-11-02T00:08:41.018Z,7.26
2018-11-02T00:08:54.222Z,7.26
2018-11-02T00:09:06.457Z,7.26
2018-11-02T00:09:18.663Z,7.26
2018-11-02T00:09:30.883Z,7.26
2018-11-02T00:09:43.126Z,7.26
2018-11-02T00:09:56.257Z,7.26
2018-11-02T00:10:08.618Z,7.26
2018-11-02T00:10:20.853Z,7.26
2018-11-02T00:10:33.080Z,7.26
2018-11-02T00:10:45.362Z,7
2018-11-02T00:10:57.604Z,7
2018-11-02T00:11:10.516Z,7
2018-11-02T00:11:22.866Z,7
2018-11-02T00:11:35.127Z,7
2018-11-02T00:11:47.376Z,7
2018-11-02T00:11:59.720Z,7
2018-11-02T00:12:13.541Z,7
2018-11-02T00:12:27.842Z,7
2018-11-02T00:12:40.942Z,7
2018-11-02T00:12:53.152Z,7
2018-11-02T00:13:05.421Z,7
2018-11-02T00:13:18.430Z,7
2018-11-02T00:13:30.716Z,7
2018-11-02T00:13:42.929Z,7
2018-11-02T00:13:55.187Z,7
2018-11-02T00:14:07.412Z,7
2018-11-02T00:14:19.986Z,7
2018-11-02T00:14:32.738Z,7
2018-11-02T00:14:44.979Z,7
2018-11-02T00:14:57.217Z,7
2018-11-02T00:15:09.830Z,7
2018-11-02T00:15:22.048Z,7
2018-11-02T00:15:35.324Z,7
2018-11-02T00:15:47.540Z,7
2018-11-02T00:15:59.769Z,7
2018-11-02T00:16:12.078Z,7
2018-11-02T00:16:24.572Z,7
2018-11-02T00:16:37.704Z,7
2018-11-02T00:16:49.956Z,7
2018-11-02T00:17:02.198Z,7
2018-11-02T00:17:14.474Z,7
2018-11-02T00:17:26.750Z,7
2018-11-02T00:17:39.382Z,7
2018-11-02T00:17:52.017Z,7
2018-11-02T00:18:04.265Z,7
2018-11-02T00:18:16.479Z,7
2018-11-02T00:18:28.695Z,7
2018-11-02T00:18:40.906Z,7
2018-11-02T00:18:53.746Z,7
2018-11-02T00:19:05.948Z,7
2018-11-02T00:19:18.173Z,7
2018-11-02T00:19:30.413Z,7
2018-11-02T00:19:42.648Z,7
2018-11-02T00:19:55.749Z,7
2018-11-02T00:20:08.180Z,7
2018-11-02T00:20:20.455Z,7
2018-11-02T00:20:32.683Z,7
2018-11-02T00:20:44.979Z,7
2018-11-02T00:20:57.222Z,7.02
2018-11-02T00:21:10.331Z,7.02
2018-11-02T00:21:22.559Z,7.02
2018-11-02T00:21:34.826Z,7.02
2018-11-02T00:21:47.084Z,7.02
2018-11-02T00:21:59.309Z,7.02
2018-11-02T00:22:12.503Z,7.02
2018-11-02T00:22:24.706Z,7.02
2018-11-02T00:22:37.076Z,7.02
2018-11-02T00:22:49.368Z,7.02
2018-11-02T00:23:02.065Z,7.02
2018-11-02T00:23:15.167Z,7.02
2018-11-02T00:23:27.395Z,7.02
2018-11-02T00:23:39.672Z,7.02
2018-11-02T00:23:51.917Z,7.02
2018-11-02T00:24:04.155Z,7.02
2018-11-02T00:24:16.388Z,7.02
2018-11-02T00:24:29.444Z,7.02
2018-11-02T00:24:41.675Z,7.02
2018-11-02T00:24:53.928Z,7.02
2018-11-02T00:25:06.314Z,7.02
2018-11-02T00:25:18.625Z,7.02
2018-11-02T00:25:31.530Z,7.02
2018-11-02T00:25:43.807Z,7.02
2018-11-02T00:25:56.050Z,7.02
2018-11-02T00:26:08.304Z,7.02
2018-11-02T00:26:20.564Z,7.02
2018-11-02T00:26:33.597Z,7.02
2018-11-02T00:26:45.848Z,7.02
2018-11-02T00:26:58.093Z,7.02
2018-11-02T00:27:10.310Z,7.02
2018-11-02T00:27:22.701Z,7.02
2018-11-02T00:27:34.891Z,7.02
2018-11-02T00:27:47.838Z,7.02
2018-11-02T00:28:00.071Z,7.02
2018-11-02T00:28:12.278Z,7.02
2018-11-02T00:28:24.503Z,7.02
2018-11-02T00:28:36.787Z,7.02
2018-11-02T00:28:49.997Z,7.02
2018-11-02T00:29:02.367Z,7.02
2018-11-02T00:29:14.705Z,7.02
2018-11-02T00:29:26.955Z,7.02
2018-11-02T00:29:39.254Z,7.02
2018-11-02T00:29:52.216Z,7.02
2018-11-02T00:30:04.574Z,7.02
2018-11-02T00:30:16.845Z,7.02
2018-11-02T00:30:29.152Z,7.02
2018-11-02T00:30:41.396Z,7.02
2018-11-02T00:30:53.680Z,6.95
2018-11-02T00:31:06.817Z,6.95
2018-11-02T00:31:19.599Z,6.95
2018-11-02T00:31:31.858Z,6.95
2018-11-02T00:31:44.581Z,6.95
2018-11-02T00:31:58.306Z,6.95
2018-11-02T00:32:12.726Z,6.95
2018-11-02T00:32:25.021Z,6.95
2018-11-02T00:32:37.289Z,6.95
2018-11-02T00:32:49.538Z,6.95
2018-11-02T00:33:01.754Z,6.95
2018-11-02T00:33:14.608Z,6.95
2018-11-02T00:33:26.893Z,6.95
2018-11-02T00:33:39.110Z,6.95
2018-11-02T00:33:51.328Z,6.95
2018-11-02T00:34:03.566Z,6.95
2018-11-02T00:34:16.166Z,6.95
2018-11-02T00:34:29.080Z,6.95
2018-11-02T00:34:41.314Z,6.95
2018-11-02T00:34:53.527Z,6.95
2018-11-02T00:35:05.752Z,6.95
2018-11-02T00:35:18.002Z,6.95
2018-11-02T00:35:30.972Z,6.95
2018-11-02T00:35:43.307Z,6.95
2018-11-02T00:35:55.556Z,6.95
2018-11-02T00:36:07.864Z,6.95
2018-11-02T00:36:20.148Z,6.95
2018-11-02T00:36:33.174Z,6.95
2018-11-02T00:36:45.407Z,6.95
2018-11-02T00:36:57.638Z,6.95
2018-11-02T00:37:09.924Z,6.95
2018-11-02T00:37:22.240Z,6.95
2018-11-02T00:37:35.024Z,6.95
2018-11-02T00:37:47.780Z,6.95
2018-11-02T00:37:59.980Z,6.95
2018-11-02T00:38:12.227Z,6.95
2018-11-02T00:38:24.488Z,6.95
2018-11-02T00:38:36.707Z,6.95
2018-11-02T00:38:49.774Z,6.95
2018-11-02T00:39:02.033Z,6.95
2018-11-02T00:39:14.265Z,6.95
2018-11-02T00:39:26.666Z,6.95
2018-11-02T00:39:38.886Z,6.95
2018-11-02T00:39:52.235Z,6.95
2018-11-02T00:40:04.480Z,6.95
2018-11-02T00:40:16.745Z,6.95
2018-11-02T00:40:28.982Z,6.95
2018-11-02T00:40:41.200Z,6.95
2018-11-02T00:40:53.496Z,6.85
2018-11-02T00:41:06.292Z,6.85
2018-11-02T00:41:18.543Z,6.85
2018-11-02T00:41:30.790Z,6.85
2018-11-02T00:41:43.005Z,6.85
2018-11-02T00:41:55.318Z,6.85
2018-11-02T00:42:08.487Z,6.85
2018-11-02T00:42:20.725Z,6.85
2018-11-02T00:42:32.994Z,6.85
2018-11-02T00:42:45.190Z,6.85
2018-11-02T00:42:57.502Z,6.85
2018-11-02T00:43:10.604Z,6.85
2018-11-02T00:43:23.008Z,6.85
2018-11-02T00:43:35.224Z,6.85
2018-11-02T00:43:47.649Z,6.85
2018-11-02T00:44:01.056Z,6.85
2018-11-02T00:44:17.443Z,6.85
2018-11-02T00:44:29.779Z,6.85
2018-11-02T00:44:42.019Z,6.85
2018-11-02T00:44:54.247Z,6.85
2018-11-02T00:45:06.527Z,6.85
2018-11-02T00:45:18.772Z,6.85
2018-11-02T00:45:31.782Z,6.85
2018-11-02T00:45:44.007Z,6.85
2018-11-02T00:45:56.276Z,6.85
2018-11-02T00:46:08.684Z,6.85
2018-11-02T00:46:20.891Z,6.85
2018-11-02T00:46:34.020Z,6.85
2018-11-02T00:46:46.253Z,6.85
2018-11-02T00:46:58.475Z,6.85
2018-11-02T00:47:10.752Z,6.85
2018-11-02T00:47:22.963Z,6.85
2018-11-02T00:47:36.294Z,6.85
2018-11-02T00:47:48.534Z,6.85
2018-11-02T00:48:00.794Z,6.85
2018-11-02T00:48:13.031Z,6.85
2018-11-02T00:48:25.259Z,6.85
2018-11-02T00:48:37.707Z,6.85
2018-11-02T00:48:50.675Z,6.85
2018-11-02T00:49:02.907Z,6.85
2018-11-02T00:49:15.133Z,6.85
2018-11-02T00:49:27.379Z,6.85
2018-11-02T00:49:40.907Z,6.85
2018-11-02T00:49:53.981Z,6.85
2018-11-02T00:50:06.183Z,6.85
2018-11-02T00:50:18.436Z,6.85
2018-11-02T00:50:30.672Z,6.85
2018-11-02T00:50:42.937Z,6.85
2018-11-02T00:50:56.101Z,6.39
2018-11-02T00:51:08.392Z,6.39
2018-11-02T00:51:20.648Z,6.39
2018-11-02T00:51:32.849Z,6.39
2018-11-02T00:51:45.071Z,6.39
2018-11-02T00:51:57.465Z,6.39
2018-11-02T00:52:10.499Z,6.39
2018-11-02T00:52:22.697Z,6.39
2018-11-02T00:52:34.931Z,6.39
2018-11-02T00:52:47.120Z,6.39
2018-11-02T00:52:59.506Z,6.39
2018-11-02T00:53:12.641Z,6.39
2018-11-02T00:53:25.289Z,6.39
2018-11-02T00:53:37.562Z,6.39
2018-11-02T00:53:49.859Z,6.39
2018-11-02T00:54:02.093Z,6.39
2018-11-02T00:54:15.369Z,6.39
2018-11-02T00:54:27.582Z,6.39
2018-11-02T00:54:39.794Z,6.39
2018-11-02T00:54:52.241Z,6.39
2018-11-02T00:55:04.588Z,6.39
2018-11-02T00:55:17.038Z,6.39
2018-11-02T00:55:30.052Z,6.39
2018-11-02T00:55:42.319Z,6.39
2018-11-02T00:55:54.542Z,6.39
2018-11-02T00:56:06.928Z,6.39
2018-11-02T00:56:19.170Z,6.39
2018-11-02T00:56:32.122Z,6.39
2018-11-02T00:56:44.327Z,6.39
2018-11-02T00:56:56.547Z,6.39
2018-11-02T00:57:08.776Z,6.39
2018-11-02T00:57:21.044Z,6.39
2018-11-02T00:57:33.847Z,6.39
2018-11-02T00:57:46.142Z,6.39
2018-11-02T00:57:58.462Z,6.39
2018-11-02T00:58:10.902Z,6.39
2018-11-02T00:58:23.239Z,6.39
2018-11-02T00:58:35.613Z,6.39
2018-11-02T00:58:48.717Z,6.39
2018-11-02T00:59:00.950Z,6.39
2018-11-02T00:59:13.223Z,6.39
2018-11-02T00:59:25.664Z,6.39
2018-11-02T00:59:37.917Z,6.39
2018-11-02T00:59:51.221Z,6.39
2018-11-02T01:00:03.531Z,6.39
2018-11-02T01:00:15.778Z,6.39
2018-11-02T01:00:28.233Z,6.39
2018-11-02T01:00:40.780Z,6.39
2018-11-02T01:00:54.112Z,7.25
2018-11-02T01:01:06.370Z,7.25
2018-11-02T01:01:18.599Z,7.25
2018-11-02T01:01:30.827Z,7.25
2018-11-02T01:01:43.070Z,7.25
2018-11-02T01:01:55.296Z,7.25
2018-11-02T01:02:08.541Z,7.25
2018-11-02T01:02:20.792Z,7.25
2018-11-02T01:02:33.043Z,7.25
2018-11-02T01:02:45.282Z,7.25
2018-11-02T01:02:57.520Z,7.25
2018-11-02T01:03:10.967Z,7.25
2018-11-02T01:03:23.258Z,7.25
2018-11-02T01:03:35.517Z,7.25
2018-11-02T01:03:47.862Z,7.25
2018-11-02T01:04:00.128Z,7.25
2018-11-02T01:04:13.371Z,7.25
2018-11-02T01:04:25.669Z,7.25
2018-11-02T01:04:38.605Z,7.25
2018-11-02T01:04:51.461Z,7.25
2018-11-02T01:05:03.723Z,7.25
2018-11-02T01:05:15.961Z,7.25
2018-11-02T01:05:29.072Z,7.25
2018-11-02T01:05:41.842Z,7.25
2018-11-02T01:05:54.677Z,7.25
2018-11-02T01:06:06.906Z,7.25
2018-11-02T01:06:19.166Z,7.25
2018-11-02T01:06:32.545Z,7.25
2018-11-02T01:06:44.771Z,7.25
2018-11-02T01:06:57.002Z,7.25
2018-11-02T01:07:09.250Z,7.25
2018-11-02T01:07:21.460Z,7.25
2018-11-02T01:07:34.643Z,7.25
2018-11-02T01:07:46.866Z,7.25
2018-11-02T01:07:59.137Z,7.25
2018-11-02T01:08:11.354Z,7.25
2018-11-02T01:08:23.626Z,7.25
2018-11-02T01:08:35.833Z,7.25
2018-11-02T01:08:49.029Z,7.25
2018-11-02T01:09:01.271Z,7.25
2018-11-02T01:09:13.569Z,7.25
2018-11-02T01:09:25.868Z,7.25
2018-11-02T01:09:38.108Z,7.25
2018-11-02T01:09:51.019Z,7.25
2018-11-02T01:10:03.265Z,7.25
2018-11-02T01:10:15.485Z,7.25
2018-11-02T01:10:27.719Z,7.25
2018-11-02T01:10:40.026Z,7.25
2018-11-02T01:10:52.964Z,6.58
2018-11-02T01:11:05.489Z,6.58
2018-11-02T01:11:17.731Z,6.58
2018-11-02T01:11:29.974Z,6.58
2018-11-02T01:11:42.171Z,6.58
2018-11-02T01:11:54.421Z,6.58
2018-11-02T01:12:07.552Z,6.58
2018-11-02T01:12:19.814Z,6.58
2018-11-02T01:12:32.204Z,6.58
2018-11-02T01:12:44.459Z,6.58
2018-11-02T01:12:56.681Z,6.58
2018-11-02T01:13:09.795Z,6.58
2018-11-02T01:13:22.032Z,6.58
2018-11-02T01:13:34.293Z,6.58
2018-11-02T01:13:46.493Z,6.58
2018-11-02T01:13:58.708Z,6.58
2018-11-02T01:14:11.396Z,6.58
2018-11-02T01:14:23.976Z,6.58
2018-11-02T01:14:36.296Z,6.58
2018-11-02T01:14:48.566Z,6.58
2018-11-02T01:15:00.805Z,6.58
2018-11-02T01:15:13.341Z,6.58
2018-11-02T01:15:26.450Z,6.58
2018-11-02T01:15:38.662Z,6.58
2018-11-02T01:15:50.898Z,6.58
2018-11-02T01:16:03.093Z,6.58
2018-11-02T01:16:15.308Z,6.58
2018-11-02T01:16:29.075Z,6.58
2018-11-02T01:16:42.550Z,6.58
2018-11-02T01:16:56.231Z,6.58
2018-11-02T01:17:08.436Z,6.58
2018-11-02T01:17:20.808Z,6.58
2018-11-02T01:17:33.756Z,6.58
2018-11-02T01:17:46.020Z,6.58
2018-11-02T01:17:58.469Z,6.58
2018-11-02T01:18:10.690Z,6.58
2018-11-02T01:18:22.936Z,6.58
2018-11-02T01:18:35.212Z,6.58
2018-11-02T01:18:48.212Z,6.58
2018-11-02T01:19:00.445Z,6.58
2018-11-02T01:19:12.747Z,6.58
2018-11-02T01:19:24.988Z,6.58
2018-11-02T01:19:37.229Z,6.58
2018-11-02T01:19:50.171Z,6.58
2018-11-02T01:20:02.434Z,6.58
2018-11-02T01:20:14.693Z,6.58
2018-11-02T01:20:26.917Z,6.58
2018-11-02T01:20:39.128Z,6.58
2018-11-02T01:20:51.987Z,6.17
2018-11-02T01:21:04.581Z,6.17
2018-11-02T01:21:16.848Z,6.17
2018-11-02T01:21:29.063Z,6.17
2018-11-02T01:21:41.312Z,6.17
2018-11-02T01:21:53.593Z,6.17
2018-11-02T01:22:06.955Z,6.17
2018-11-02T01:22:19.350Z,6.17
2018-11-02T01:22:31.593Z,6.17
2018-11-02T01:22:44.037Z,6.17
2018-11-02T01:22:56.315Z,6.17
2018-11-02T01:23:09.355Z,6.17
2018-11-02T01:23:21.576Z,6.17
2018-11-02T01:23:33.821Z,6.17
2018-11-02T01:23:46.056Z,6.17
2018-11-02T01:23:58.317Z,6.17
2018-11-02T01:24:12.123Z,6.17
2018-11-02T01:24:24.592Z,6.17
2018-11-02T01:24:37.063Z,6.17
2018-11-02T01:24:49.287Z,6.17
2018-11-02T01:25:01.605Z,6.17
2018-11-02T01:25:13.913Z,6.17
2018-11-02T01:25:26.884Z,6.17
2018-11-02T01:25:39.121Z,6.17
2018-11-02T01:25:51.442Z,6.17
2018-11-02T01:26:03.673Z,6.17
2018-11-02T01:26:16.026Z,6.17
2018-11-02T01:26:29.028Z,6.17
2018-11-02T01:26:41.239Z,6.17
2018-11-02T01:26:53.465Z,6.17
2018-11-02T01:27:05.671Z,6.17
2018-11-02T01:27:17.927Z,6.17
2018-11-02T01:27:30.978Z,6.17
2018-11-02T01:27:43.436Z,6.17
2018-11-02T01:27:55.666Z,6.17
2018-11-02T01:28:07.967Z,6.17
2018-11-02T01:28:20.195Z,6.17
2018-11-02T01:28:32.504Z,6.17
2018-11-02T01:28:45.560Z,6.17
2018-11-02T01:28:58.025Z,6.17
2018-11-02T01:29:10.250Z,6.17
2018-11-02T01:29:22.491Z,6.17
2018-11-02T01:29:34.776Z,6.17
2018-11-02T01:29:48.196Z,6.17
2018-11-02T01:30:00.394Z,6.17
2018-11-02T01:30:12.650Z,6.17
2018-11-02T01:30:24.867Z,6.17
2018-11-02T01:30:37.071Z,6.17
2018-11-02T01:30:49.868Z,7.75
2018-11-02T01:31:02.546Z,7.75
2018-11-02T01:31:14.763Z,7.75
2018-11-02T01:31:27.014Z,7.75
2018-11-02T01:31:39.265Z,7.75
2018-11-02T01:31:51.491Z,7.75
2018-11-02T01:32:04.514Z,7.75
2018-11-02T01:32:16.787Z,7.75
2018-11-02T01:32:29.006Z,7.75
2018-11-02T01:32:41.250Z,7.75
2018-11-02T01:32:53.509Z,7.75
2018-11-02T01:33:06.701Z,7.75
2018-11-02T01:33:18.929Z,7.75
2018-11-02T01:33:31.149Z,7.75
2018-11-02T01:33:43.419Z,7.75
2018-11-02T01:33:55.663Z,7.75
2018-11-02T01:34:08.230Z,7.75
2018-11-02T01:34:21.080Z,7.75
2018-11-02T01:34:33.309Z,7.75
2018-11-02T01:34:45.525Z,7.75
2018-11-02T01:34:57.736Z,7.75
2018-11-02T01:35:09.988Z,7.75
2018-11-02T01:35:23.032Z,7.75
2018-11-02T01:35:35.260Z,7.75
2018-11-02T01:35:47.641Z,7.75
2018-11-02T01:35:59.840Z,7.75
2018-11-02T01:36:12.168Z,7.75
2018-11-02T01:36:25.419Z,7.75
2018-11-02T01:36:37.664Z,7.75
2018-11-02T01:36:50.065Z,7.75
2018-11-02T01:37:02.333Z,7.75
2018-11-02T01:37:14.587Z,7.75
2018-11-02T01:37:27.201Z,7.75
2018-11-02T01:37:40.596Z,7.75
2018-11-02T01:37:52.830Z,7.75
2018-11-02T01:38:05.048Z,7.75
2018-11-02T01:38:17.320Z,7.75
2018-11-02T01:38:29.546Z,7.75
2018-11-02T01:38:42.638Z,7.75
2018-11-02T01:38:54.889Z,7.75
2018-11-02T01:39:07.095Z,7.75
2018-11-02T01:39:19.326Z,7.75
2018-11-02T01:39:31.757Z,7.75
2018-11-02T01:39:44.762Z,7.75
2018-11-02T01:39:56.999Z,7.75
2018-11-02T01:40:09.228Z,7.75
2018-11-02T01:40:21.633Z,7.75
2018-11-02T01:40:33.860Z,7.75
2018-11-02T01:40:46.191Z,7.75
2018-11-02T01:40:59.219Z,7.21
2018-11-02T01:41:11.457Z,7.21
2018-11-02T01:41:23.740Z,7.21
2018-11-02T01:41:35.942Z,7.21
2018-11-02T01:41:48.193Z,7.21
2018-11-02T01:42:01.390Z,7.21
2018-11-02T01:42:13.669Z,7.21
2018-11-02T01:42:25.871Z,7.21
2018-11-02T01:42:38.097Z,7.21
2018-11-02T01:42:50.309Z,7.21
2018-11-02T01:43:03.448Z,7.21
2018-11-02T01:43:15.684Z,7.21
2018-11-02T01:43:27.935Z,7.21
2018-11-02T01:43:40.247Z,7.21
2018-11-02T01:43:52.516Z,7.21
2018-11-02T01:44:04.755Z,7.21
2018-11-02T01:44:17.845Z,7.21
2018-11-02T01:44:30.123Z,7.21
2018-11-02T01:44:42.389Z,7.21
2018-11-02T01:44:54.654Z,7.21
2018-11-02T01:45:06.942Z,7.21
2018-11-02T01:45:20.262Z,7.21
2018-11-02T01:45:32.490Z,7.21
2018-11-02T01:45:44.733Z,7.21
2018-11-02T01:45:56.960Z,7.21
2018-11-02T01:46:09.161Z,7.21
2018-11-02T01:46:22.416Z,7.21
2018-11-02T01:46:34.868Z,7.21
2018-11-02T01:46:47.298Z,7.21
2018-11-02T01:46:59.527Z,7.21
2018-11-02T01:47:11.771Z,7.21
2018-11-02T01:47:23.986Z,7.21
2018-11-02T01:47:37.200Z,7.21
2018-11-02T01:47:49.499Z,7.21
2018-11-02T01:48:01.726Z,7.21
2018-11-02T01:48:13.958Z,7.21
2018-11-02T01:48:26.166Z,7.21
2018-11-02T01:48:39.279Z,7.21
2018-11-02T01:48:51.497Z,7.21
2018-11-02T01:49:03.765Z,7.21
2018-11-02T01:49:16.058Z,7.21
2018-11-02T01:49:28.331Z,7.21
2018-11-02T01:49:41.402Z,7.21
2018-11-02T01:49:53.866Z,7.21
2018-11-02T01:50:06.147Z,7.21
2018-11-02T01:50:18.407Z,7.21
2018-11-02T01:50:30.604Z,7.21
2018-11-02T01:50:42.892Z,7.21
2018-11-02T01:50:55.927Z,7.62
2018-11-02T01:51:08.186Z,7.62
2018-11-02T01:51:20.449Z,7.62
2018-11-02T01:51:32.754Z,7.62
2018-11-02T01:51:45.004Z,7.62
2018-11-02T01:51:58.149Z,7.62
2018-11-02T01:52:10.381Z,7.62
2018-11-02T01:52:22.620Z,7.62
2018-11-02T01:52:34.917Z,7.62
2018-11-02T01:52:47.207Z,7.62
2018-11-02T01:53:00.400Z,7.62
2018-11-02T01:53:12.827Z,7.62
2018-11-02T01:53:25.221Z,7.62
2018-11-02T01:53:37.556Z,7.62
2018-11-02T01:53:49.838Z,7.62
2018-11-02T01:54:02.097Z,7.62
2018-11-02T01:54:15.367Z,7.62
2018-11-02T01:54:27.617Z,7.62
2018-11-02T01:54:39.873Z,7.62
2018-11-02T01:54:52.077Z,7.62
2018-11-02T01:55:04.402Z,7.62
2018-11-02T01:55:17.459Z,7.62
2018-11-02T01:55:29.677Z,7.62
2018-11-02T01:55:41.892Z,7.62
2018-11-02T01:55:54.108Z,7.62
2018-11-02T01:56:06.308Z,7.62
2018-11-02T01:56:19.094Z,7.62
2018-11-02T01:56:31.728Z,7.62
2018-11-02T01:56:43.953Z,7.62
2018-11-02T01:56:56.266Z,7.62
2018-11-02T01:57:08.529Z,7.62
2018-11-02T01:57:20.743Z,7.62
2018-11-02T01:57:33.713Z,7.62
2018-11-02T01:57:45.947Z,7.62
2018-11-02T01:57:58.207Z,7.62
2018-11-02T01:58:10.553Z,7.62
2018-11-02T01:58:22.753Z,7.62
2018-11-02T01:58:35.805Z,7.62
2018-11-02T01:58:48.032Z,7.62
2018-11-02T01:59:00.260Z,7.62
2018-11-02T01:59:12.509Z,7.62
2018-11-02T01:59:24.766Z,7.62
2018-11-02T01:59:37.223Z,7.62
2018-11-02T01:59:50.070Z,7.62
2018-11-02T02:00:02.327Z,7.62
2018-11-02T02:00:14.592Z,7.62
2018-11-02T02:00:27.040Z,7.62
2018-11-02T02:00:39.270Z,7.62
2018-11-02T02:00:52.365Z,7.56
2018-11-02T02:01:04.633Z,7.56
2018-11-02T02:01:16.856Z,7.56
2018-11-02T02:01:29.060Z,7.56
2018-11-02T02:01:41.345Z,7.56
2018-11-02T02:01:54.560Z,7.56
2018-11-02T02:02:06.832Z,7.56
2018-11-02T02:02:19.120Z,7.56
2018-11-02T02:02:31.316Z,7.56
2018-11-02T02:02:43.520Z,7.56
2018-11-02T02:02:55.946Z,7.56
2018-11-02T02:03:09.012Z,7.56
2018-11-02T02:03:21.271Z,7.56
2018-11-02T02:03:33.481Z,7.56
2018-11-02T02:03:45.695Z,7.56
2018-11-02T02:03:57.930Z,7.56
2018-11-02T02:04:11.196Z,7.56
2018-11-02T02:04:23.458Z,7.56
2018-11-02T02:04:35.866Z,7.56
2018-11-02T02:04:48.130Z,7.56
2018-11-02T02:05:00.350Z,7.56
2018-11-02T02:05:13.397Z,7.56
2018-11-02T02:05:25.631Z,7.56
2018-11-02T02:05:37.841Z,7.56
2018-11-02T02:05:50.050Z,7.56
2018-11-02T02:06:02.271Z,7.56
2018-11-02T02:06:14.663Z,7.56
2018-11-02T02:06:27.510Z,7.56
2018-11-02T02:06:39.745Z,7.56
2018-11-02T02:06:52.083Z,7.56
2018-11-02T02:07:04.376Z,7.56
2018-11-02T02:07:16.584Z,7.56
2018-11-02T02:07:29.684Z,7.56
2018-11-02T02:07:41.910Z,7.56
2018-11-02T02:07:54.128Z,7.56
2018-11-02T02:08:06.405Z,7.56
2018-11-02T02:08:18.637Z,7.56
2018-11-02T02:08:31.686Z,7.56
2018-11-02T02:08:43.891Z,7.56
2018-11-02T02:08:56.140Z,7.56
2018-11-02T02:09:08.335Z,7.56
2018-11-02T02:09:20.572Z,7.56
2018-11-02T02:09:32.776Z,7.56
2018-11-02T02:09:45.594Z,7.56
2018-11-02T02:09:58.032Z,7.56
2018-11-02T02:10:10.250Z,7.56
2018-11-02T02:10:22.523Z,7.56
2018-11-02T02:10:34.729Z,7.56
2018-11-02T02:10:47.776Z,7.56
2018-11-02T02:10:59.974Z,7.75
2018-11-02T02:11:12.300Z,7.75
2018-11-02T02:11:24.530Z,7.75
2018-11-02T02:11:36.759Z,7.75
2018-11-02T02:11:49.651Z,7.75
2018-11-02T02:12:01.880Z,7.75
2018-11-02T02:12:14.157Z,7.75
2018-11-02T02:12:26.412Z,7.75
2018-11-02T02:12:38.770Z,7.75
2018-11-02T02:12:51.021Z,7.75
2018-11-02T02:13:04.561Z,7.75
2018-11-02T02:13:18.135Z,7.75
2018-11-02T02:13:31.926Z,7.75
2018-11-02T02:13:44.117Z,7.75
2018-11-02T02:13:56.332Z,7.75
2018-11-02T02:14:09.365Z,7.75
2018-11-02T02:14:21.591Z,7.75
2018-11-02T02:14:33.872Z,7.75
2018-11-02T02:14:46.123Z,7.75
2018-11-02T02:14:58.360Z,7.75
2018-11-02T02:15:11.683Z,7.75
2018-11-02T02:15:23.904Z,7.75
2018-11-02T02:15:36.123Z,7.75
2018-11-02T02:15:48.353Z,7.75
2018-11-02T02:16:00.628Z,7.75
2018-11-02T02:16:13.429Z,7.75
2018-11-02T02:16:26.125Z,7.75
2018-11-02T02:16:38.362Z,7.75
2018-11-02T02:16:50.618Z,7.75
2018-11-02T02:17:02.858Z,7.75
2018-11-02T02:17:15.152Z,7.75
2018-11-02T02:17:28.318Z,7.75
2018-11-02T02:17:40.536Z,7.75
2018-11-02T02:17:52.795Z,7.75
2018-11-02T02:18:05.085Z,7.75
2018-11-02T02:18:17.349Z,7.75
2018-11-02T02:18:30.598Z,7.75
2018-11-02T02:18:42.995Z,7.75
2018-11-02T02:18:55.216Z,7.75
2018-11-02T02:19:07.465Z,7.75
2018-11-02T02:19:19.739Z,7.75
2018-11-02T02:19:32.197Z,7.75
2018-11-02T02:19:45.016Z,7.75
2018-11-02T02:19:57.250Z,7.75
2018-11-02T02:20:09.526Z,7.75
2018-11-02T02:20:21.805Z,7.75
2018-11-02T02:20:34.008Z,7.75
2018-11-02T02:20:47.333Z,7.75
2018-11-02T02:20:59.561Z,6.93
2018-11-02T02:21:11.940Z,6.93
2018-11-02T02:21:24.155Z,6.93
2018-11-02T02:21:36.366Z,6.93
2018-11-02T02:21:49.338Z,6.93
2018-11-02T02:22:01.633Z,6.93
2018-11-02T02:22:13.953Z,6.93
2018-11-02T02:22:26.195Z,6.93
2018-11-02T02:22:38.551Z,6.93
2018-11-02T02:22:52.827Z,6.93
2018-11-02T02:23:05.689Z,6.93
2018-11-02T02:23:17.946Z,6.93
2018-11-02T02:23:30.235Z,6.93
2018-11-02T02:23:42.475Z,6.93
2018-11-02T02:23:54.761Z,6.93
2018-11-02T02:24:07.622Z,6.93
2018-11-02T02:24:19.853Z,6.93
2018-11-02T02:24:32.180Z,6.93
2018-11-02T02:24:44.461Z,6.93
2018-11-02T02:24:56.837Z,6.93
2018-11-02T02:25:10.397Z,6.93
2018-11-02T02:25:22.697Z,6.93
2018-11-02T02:25:34.904Z,6.93
2018-11-02T02:25:47.107Z,6.93
2018-11-02T02:25:59.322Z,6.93
2018-11-02T02:26:12.280Z,6.93
2018-11-02T02:26:24.902Z,6.93
2018-11-02T02:26:37.206Z,6.93
2018-11-02T02:26:49.435Z,6.93
2018-11-02T02:27:01.707Z,6.93
2018-11-02T02:27:13.991Z,6.93
2018-11-02T02:27:27.070Z,6.93
2018-11-02T02:27:39.310Z,6.93
2018-11-02T02:27:51.535Z,6.93
2018-11-02T02:28:03.793Z,6.93
2018-11-02T02:28:15.997Z,6.93
2018-11-02T02:28:28.933Z,6.93
2018-11-02T02:28:41.162Z,6.93
2018-11-02T02:28:53.911Z,6.93
2018-11-02T02:29:06.105Z,6.93
2018-11-02T02:29:18.329Z,6.93
2018-11-02T02:29:31.400Z,6.93
2018-11-02T02:29:44.006Z,6.93
2018-11-02T02:29:56.218Z,6.93
2018-11-02T02:30:08.460Z,6.93
2018-11-02T02:30:20.737Z,6.93
2018-11-02T02:30:33.009Z,6.93
2018-11-02T02:30:46.044Z,6.93
2018-11-02T02:30:58.307Z,7.67
2018-11-02T02:31:10.580Z,7.67
2018-11-02T02:31:22.847Z,7.67
2018-11-02T02:31:35.086Z,7.67
2018-11-02T02:31:48.349Z,7.67
2018-11-02T02:32:00.601Z,7.67
2018-11-02T02:32:12.864Z,7.67
2018-11-02T02:32:25.188Z,7.67
2018-11-02T02:32:37.445Z,7.67
2018-11-02T02:32:50.112Z,7.67
2018-11-02T02:33:02.870Z,7.67
2018-11-02T02:33:15.192Z,7.67
2018-11-02T02:33:27.439Z,7.67
2018-11-02T02:33:39.677Z,7.67
2018-11-02T02:33:51.954Z,7.67
2018-11-02T02:34:05.157Z,7.67
2018-11-02T02:34:17.442Z,7.67
2018-11-02T02:34:29.747Z,7.67
2018-11-02T02:34:41.991Z,7.67
2018-11-02T02:34:54.216Z,7.67
2018-11-02T02:35:07.250Z,7.67
2018-11-02T02:35:19.546Z,7.67
2018-11-02T02:35:31.959Z,7.67
2018-11-02T02:35:44.309Z,7.67
2018-11-02T02:35:56.532Z,7.67
2018-11-02T02:36:09.255Z,7.67
2018-11-02T02:36:22.282Z,7.67
2018-11-02T02:36:34.586Z,7.67
2018-11-02T02:36:46.853Z,7.67
2018-11-02T02:36:59.183Z,7.67
2018-11-02T02:37:11.558Z,7.67
2018-11-02T02:37:24.795Z,7.67
2018-11-02T02:37:37.305Z,7.67
2018-11-02T02:37:49.675Z,7.67
2018-11-02T02:38:01.971Z,7.67
2018-11-02T02:38:14.255Z,7.67
2018-11-02T02:38:27.299Z,7.67
2018-11-02T02:38:39.708Z,7.67
2018-11-02T02:38:52.010Z,7.67
2018-11-02T02:39:04.294Z,7.67
2018-11-02T02:39:16.589Z,7.67
2018-11-02T02:39:29.118Z,7.67
2018-11-02T02:39:42.126Z,7.67
2018-11-02T02:39:54.620Z,7.67
2018-11-02T02:40:06.859Z,7.67
2018-11-02T02:40:19.128Z,7.67
2018-11-02T02:40:31.351Z,7.67
2018-11-02T02:40:44.643Z,7.67
2018-11-02T02:40:56.946Z,6.35
2018-11-02T02:41:09.230Z,6.35
2018-11-02T02:41:21.423Z,6.35
2018-11-02T02:41:33.689Z,6.35
2018-11-02T02:41:46.767Z,6.35
2018-11-02T02:41:59.091Z,6.35
2018-11-02T02:42:11.388Z,6.35
2018-11-02T02:42:23.653Z,6.35
2018-11-02T02:42:35.857Z,6.35
2018-11-02T02:42:48.167Z,6.35
2018-11-02T02:43:01.399Z,6.35
2018-11-02T02:43:13.656Z,6.35
2018-11-02T02:43:25.908Z,6.35
2018-11-02T02:43:38.159Z,6.35
2018-11-02T02:43:50.520Z,6.35
2018-11-02T02:44:03.549Z,6.35
2018-11-02T02:44:15.820Z,6.35
2018-11-02T02:44:28.078Z,6.35
2018-11-02T02:44:40.350Z,6.35
2018-11-02T02:44:52.579Z,6.35
2018-11-02T02:45:05.452Z,6.35
2018-11-02T02:45:17.823Z,6.35
2018-11-02T02:45:30.095Z,6.35
2018-11-02T02:45:42.328Z,6.35
2018-11-02T02:45:54.661Z,6.35
2018-11-02T02:46:06.951Z,6.35
2018-11-02T02:46:20.074Z,6.35
2018-11-02T02:46:32.374Z,6.35
2018-11-02T02:46:44.679Z,6.35
2018-11-02T02:46:56.950Z,6.35